createdAt,value
2019-04-16T00:01:53.578Z,17.10
2019-04-16T00:05:00.799Z,12.23
2019-04-16T00:07:48.783Z,15.20
2019-04-16T00:10:37.478Z,16.17
2019-04-16T00:13:25.870Z,12.87
2019-04-16T00:18:56.384Z,15.63
2019-04-16T00:24:12.467Z,13.33
2019-04-16T00:27:21.008Z,15.80
2019-04-16T00:29:49.691Z,14.37
2019-04-16T00:34:55.172Z,17.07
2019-04-16T00:37:23.932Z,15.23
2019-04-16T00:42:59.765Z,12.90
2019-04-16T00:45:28.437Z,11.83
2019-04-16T00:47:57.051Z,14.80
2019-04-16T00:50:25.796Z,13.10
2019-04-16T00:52:54.695Z,12.90
2019-04-16T00:55:45.036Z,14.87
2019-04-16T00:58:13.533Z,14.93
2019-04-16T01:00:42.299Z,13.43
2019-04-16T01:03:11.553Z,13.77
2019-04-16T01:05:40.831Z,13.63
2019-04-16T01:08:10.303Z,12.70
2019-04-16T01:10:39.495Z,12.17
2019-04-16T01:13:08.169Z,13.20
2019-04-16T01:15:36.855Z,9.30
2019-04-16T01:18:08.183Z,13.47
2019-04-16T01:20:36.197Z,10.63
2019-04-16T01:23:04.913Z,16.20
2019-04-16T01:25:34.206Z,12.63
2019-04-16T01:28:22.296Z,16.10
2019-04-16T01:33:46.611Z,14.57
2019-04-16T01:36:35.469Z,14.73
2019-04-16T01:41:59.750Z,15.83
2019-04-16T01:47:05.269Z,13.30
2019-04-16T01:49:34.825Z,15.10
2019-04-16T01:52:04.114Z,12.17
2019-04-16T01:54:32.804Z,12.40
2019-04-16T01:57:22.523Z,12.57
2019-04-16T01:59:51.348Z,17.03
2019-04-16T02:02:20.593Z,13.07
2019-04-16T02:04:52.071Z,17.67
2019-04-16T02:07:20.276Z,13.40
2019-04-16T02:09:49.784Z,14.83
2019-04-16T02:12:38.071Z,11.90
2019-04-16T02:15:27.403Z,14.17
2019-04-16T02:17:58.770Z,16.93
2019-04-16T02:20:27.385Z,15.10
2019-04-16T02:22:56.071Z,15.83
2019-04-16T02:25:25.252Z,13.40
2019-04-16T02:27:56.995Z,18.50
2019-04-16T02:30:25.596Z,11.17
2019-04-16T02:33:13.605Z,14.53
2019-04-16T02:35:42.728Z,14.73
2019-04-16T02:38:30.680Z,16.13
2019-04-16T02:40:59.287Z,14.37
2019-04-16T02:46:36.357Z,13.77
2019-04-16T02:49:05.100Z,18.50
2019-04-16T02:54:33.809Z,16.10
2019-04-16T03:02:44.560Z,11.50
2019-04-16T03:08:04.993Z,14.10
2019-04-16T03:10:34.025Z,17.20
2019-04-16T03:13:02.747Z,16.37
2019-04-16T03:15:52.836Z,17.13
2019-04-16T03:21:10.937Z,15.87
2019-04-16T03:23:38.868Z,16.90
2019-04-16T03:26:07.568Z,12.03
2019-04-16T03:28:58.398Z,21.30
2019-04-16T03:31:45.838Z,16.47
2019-04-16T03:34:14.517Z,15.10
2019-04-16T03:36:43.873Z,15.40
2019-04-16T03:39:13.933Z,15.23
2019-04-16T03:41:44.032Z,16.23
2019-04-16T03:44:13.193Z,17.87
2019-04-16T03:46:46.069Z,14.33
2019-04-16T03:49:12.794Z,11.67
2019-04-16T03:51:41.479Z,13.23
2019-04-16T03:54:10.538Z,17.07
2019-04-16T03:56:39.938Z,15.50
2019-04-16T04:01:46.035Z,12.57
2019-04-16T04:04:34.585Z,16.00
2019-04-16T04:07:03.690Z,18.60
2019-04-16T04:09:32.903Z,19.90
2019-04-16T04:12:42.660Z,15.47
2019-04-16T04:15:31.484Z,17.33
2019-04-16T04:18:00.976Z,13.17
2019-04-16T04:20:30.378Z,13.70
2019-04-16T04:22:59.153Z,18.27
2019-04-16T04:25:47.093Z,17.57
2019-04-16T04:28:19.622Z,15.33
2019-04-16T04:31:05.804Z,15.97
2019-04-16T04:33:54.160Z,17.33
2019-04-16T04:36:26.712Z,16.47
2019-04-16T04:38:53.183Z,19.20
2019-04-16T04:41:23.101Z,21.17
2019-04-16T04:43:52.647Z,14.70
2019-04-16T04:47:01.200Z,16.93
2019-04-16T04:49:49.289Z,14.30
2019-04-16T04:52:37.597Z,14.40
2019-04-16T04:58:15.069Z,16.37
2019-04-16T05:00:43.767Z,19.00
2019-04-16T05:06:07.103Z,16.77
2019-04-16T05:08:35.819Z,20.60
2019-04-16T05:11:04.500Z,17.20
2019-04-16T05:13:33.038Z,16.57
2019-04-16T05:16:02.669Z,15.40
2019-04-16T05:18:31.974Z,15.93
2019-04-16T05:21:00.554Z,15.60
2019-04-16T05:23:29.294Z,17.03
2019-04-16T05:25:58.371Z,19.63
2019-04-16T05:28:27.222Z,25.07
2019-04-16T05:30:56.290Z,24.47
2019-04-16T05:33:44.845Z,19.43
2019-04-16T05:36:34.245Z,18.97
2019-04-16T05:39:42.792Z,20.83
2019-04-16T05:42:11.379Z,15.80
2019-04-16T05:44:40.066Z,21.20
2019-04-16T05:47:08.758Z,19.77
2019-04-16T05:49:37.443Z,18.03
2019-04-16T05:52:06.093Z,20.90
2019-04-16T05:57:32.968Z,20.40
2019-04-16T06:00:03.368Z,19.50
2019-04-16T06:05:21.243Z,20.20
2019-04-16T06:07:49.942Z,19.17
2019-04-16T06:10:19.167Z,15.50
2019-04-16T06:13:09.404Z,17.20
2019-04-16T06:15:57.603Z,19.73
2019-04-16T06:18:45.412Z,14.37
2019-04-16T06:24:22.500Z,12.53
2019-04-16T06:27:10.340Z,14.97
2019-04-16T06:30:01.343Z,14.90
2019-04-16T06:35:23.030Z,19.70
2019-04-16T06:38:10.894Z,21.23
2019-04-16T06:46:13.418Z,16.27
2019-04-16T06:49:01.422Z,16.00
2019-04-16T06:51:49.183Z,15.40
2019-04-16T06:54:37.271Z,14.90
2019-04-16T06:57:26.909Z,21.20
2019-04-16T07:00:14.605Z,18.32
2019-04-16T07:03:03.036Z,19.60
2019-04-16T07:05:51.923Z,17.00
2019-04-16T07:13:48.893Z,16.90
2019-04-16T07:16:17.567Z,20.50
2019-04-16T07:18:46.226Z,20.63
2019-04-16T07:21:17.554Z,17.33
2019-04-16T07:23:46.715Z,17.40
2019-04-16T07:26:15.883Z,17.80
2019-04-16T07:31:39.582Z,15.83
2019-04-16T07:39:52.021Z,19.00
2019-04-16T07:42:51.341Z,17.20
2019-04-16T07:45:29.344Z,14.07
2019-04-16T07:48:17.167Z,19.77
2019-04-16T07:53:40.116Z,15.03
2019-04-16T07:56:27.867Z,16.67
2019-04-16T07:59:00.202Z,12.90
2019-04-16T08:01:26.999Z,18.87
2019-04-16T08:04:00.274Z,16.27
2019-04-16T08:06:26.034Z,15.27
2019-04-16T08:08:57.139Z,17.67
2019-04-16T08:11:25.169Z,17.07
2019-04-16T08:13:53.751Z,16.27
2019-04-16T08:19:01.590Z,18.90
2019-04-16T08:21:30.166Z,14.97
2019-04-16T08:24:17.910Z,16.17
2019-04-16T08:26:46.563Z,16.10
2019-04-16T08:29:15.257Z,18.63
2019-04-16T08:34:33.156Z,17.20
2019-04-16T08:37:01.777Z,19.90
2019-04-16T08:39:30.477Z,16.43
2019-04-16T08:41:59.169Z,12.80
2019-04-16T08:44:27.742Z,21.87
2019-04-16T08:46:58.874Z,16.40
2019-04-16T08:49:26.692Z,16.93
2019-04-16T08:51:55.369Z,19.27
2019-04-16T08:54:23.982Z,17.97
2019-04-16T08:56:52.618Z,18.20
2019-04-16T08:59:21.241Z,20.90
2019-04-16T09:04:58.001Z,20.67
2019-04-16T09:07:50.667Z,19.37
2019-04-16T09:13:24.771Z,22.03
2019-04-16T09:21:10.256Z,18.20
2019-04-16T09:23:38.250Z,20.37
2019-04-16T09:26:26.065Z,22.37
2019-04-16T09:32:03.107Z,19.43
2019-04-16T09:37:28.627Z,18.33
2019-04-16T09:40:18.413Z,18.93
2019-04-16T09:42:46.325Z,18.33
2019-04-16T09:48:04.238Z,17.37
2019-04-16T09:50:32.841Z,17.63
2019-04-16T09:53:02.027Z,18.90
2019-04-16T09:55:31.749Z,19.30
2019-04-16T10:01:19.111Z,18.57
2019-04-16T10:04:06.928Z,22.63
2019-04-16T10:09:24.946Z,16.50
2019-04-16T10:11:57.192Z,15.60
2019-04-16T10:14:25.451Z,15.80
2019-04-16T10:16:54.127Z,19.00
2019-04-16T10:19:22.678Z,18.20
2019-04-16T10:21:54.268Z,15.77
2019-04-16T10:24:40.798Z,19.60
2019-04-16T10:29:44.931Z,17.70
2019-04-16T10:32:13.619Z,15.40
2019-04-16T10:34:42.302Z,15.63
2019-04-16T10:37:10.951Z,13.57
2019-04-16T10:39:58.790Z,13.40
2019-04-16T10:42:46.509Z,13.20
2019-04-16T10:45:34.379Z,14.97
2019-04-16T10:48:22.196Z,15.80
2019-04-16T10:56:24.118Z,16.60
2019-04-16T10:59:11.970Z,15.27
2019-04-16T11:01:59.704Z,16.77
2019-04-16T11:04:47.468Z,15.07
2019-04-16T11:10:45.177Z,15.57
2019-04-16T11:15:49.198Z,16.93
2019-04-16T11:18:17.851Z,13.57
2019-04-16T11:20:46.630Z,14.70
2019-04-16T11:23:15.158Z,15.93
2019-04-16T11:25:43.875Z,16.83
2019-04-16T11:28:14.361Z,15.30
2019-04-16T11:33:51.467Z,15.20
2019-04-16T11:36:20.987Z,15.27
2019-04-16T11:38:50.573Z,10.83
2019-04-16T11:41:19.269Z,11.43
2019-04-16T11:43:47.984Z,11.20
2019-04-16T11:46:16.729Z,7.27
2019-04-16T11:48:45.323Z,8.43
2019-04-16T11:51:14.013Z,11.20
2019-04-16T11:53:42.588Z,9.40
2019-04-16T11:56:11.251Z,8.27
2019-04-16T12:01:55.014Z,12.63
2019-04-16T12:04:42.801Z,10.87
2019-04-16T12:07:30.608Z,11.63
2019-04-16T12:10:18.343Z,14.13
2019-04-16T12:13:06.275Z,13.70
2019-04-16T12:18:43.274Z,11.17
2019-04-16T12:21:31.001Z,7.80
2019-04-16T12:24:18.838Z,10.93
2019-04-16T12:27:06.580Z,10.27
2019-04-16T12:29:54.394Z,9.97
2019-04-16T12:35:21.597Z,9.80
2019-04-16T12:38:13.102Z,11.50
2019-04-16T12:40:58.965Z,12.50
2019-04-16T12:49:11.507Z,12.80
2019-04-16T12:51:59.260Z,10.93
2019-04-16T12:57:36.277Z,10.73
2019-04-16T13:00:44.768Z,10.30
2019-04-16T13:03:32.543Z,11.40
2019-04-16T13:06:20.347Z,12.50
2019-04-16T13:09:08.154Z,10.53
2019-04-16T13:11:55.976Z,8.73
2019-04-16T13:14:43.761Z,10.37
2019-04-16T13:17:31.570Z,9.57
2019-04-16T13:20:19.409Z,9.93
2019-04-16T13:28:16.253Z,10.97
2019-04-16T13:30:44.939Z,11.73
2019-04-16T13:33:13.524Z,8.13
2019-04-16T13:35:42.199Z,10.30
2019-04-16T13:41:02.189Z,9.10
2019-04-16T13:46:19.785Z,8.90
2019-04-16T13:49:07.590Z,9.20
2019-04-16T13:57:06.385Z,7.00
2019-04-16T13:59:54.088Z,8.23
2019-04-16T14:05:17.677Z,9.00
2019-04-16T14:07:46.356Z,9.50
2019-04-16T14:10:15.135Z,7.53
2019-04-16T14:12:43.789Z,7.73
2019-04-16T14:15:52.240Z,8.60
2019-04-16T14:18:21.920Z,6.67
2019-04-16T14:20:51.303Z,10.03
2019-04-16T14:23:19.912Z,7.80
2019-04-16T14:25:48.569Z,7.30
2019-04-16T14:28:18.160Z,8.73
2019-04-16T14:33:55.938Z,6.50
2019-04-16T14:36:24.695Z,11.33
2019-04-16T14:41:32.388Z,10.80
2019-04-16T14:46:50.209Z,8.30
2019-04-16T14:49:19.083Z,8.13
2019-04-16T14:51:49.263Z,10.30
2019-04-16T14:54:37.083Z,7.03
2019-04-16T15:00:14.116Z,7.60
2019-04-16T15:19:05.202Z,10.50
2019-04-16T15:21:53.016Z,9.43
2019-04-16T15:27:31.636Z,13.37
2019-04-16T15:30:19.538Z,8.43
2019-04-16T15:33:07.390Z,8.97
2019-04-16T15:38:30.793Z,11.23
2019-04-16T15:41:18.549Z,8.37
2019-04-16T15:44:06.378Z,9.77
2019-04-16T15:46:54.160Z,9.10
2019-04-16T15:50:02.622Z,7.17
2019-04-16T15:52:50.322Z,8.00
2019-04-16T15:55:38.056Z,5.90
2019-04-16T16:01:15.005Z,9.67
2019-04-16T16:04:02.778Z,7.07
2019-04-16T16:09:47.004Z,5.90
2019-04-16T16:14:54.791Z,9.93
2019-04-16T16:17:23.503Z,10.27
2019-04-16T16:19:52.153Z,7.60
2019-04-16T16:22:20.884Z,9.83
2019-04-16T16:24:49.562Z,9.30
2019-04-16T16:27:18.209Z,7.87
2019-04-16T16:29:46.982Z,5.93
2019-04-16T16:32:15.621Z,7.23
2019-04-16T16:35:03.637Z,8.57
2019-04-16T16:37:33.935Z,11.07
2019-04-16T16:40:02.871Z,10.57
2019-04-16T16:42:31.498Z,6.60
2019-04-16T16:45:01.951Z,7.60
2019-04-16T16:50:51.636Z,6.70
2019-04-16T16:53:39.359Z,6.67
2019-04-16T16:56:27.179Z,8.83
2019-04-16T17:01:55.381Z,7.33
2019-04-16T17:07:00.945Z,8.80
2019-04-16T17:09:50.252Z,6.90
2019-04-16T17:12:18.962Z,6.43
2019-04-16T17:14:47.609Z,7.83
2019-04-16T17:17:16.187Z,10.70
2019-04-16T17:19:45.072Z,11.23
2019-04-16T17:22:14.604Z,7.30
2019-04-16T17:24:44.411Z,7.90
2019-04-16T17:27:13.352Z,5.97
2019-04-16T17:29:42.240Z,7.83
2019-04-16T17:32:11.039Z,7.00
2019-04-16T17:34:39.947Z,7.80
2019-04-16T17:37:10.103Z,5.80
2019-04-16T17:39:57.889Z,5.90
2019-04-16T17:42:45.689Z,6.17
2019-04-16T17:45:52.789Z,6.07
2019-04-16T17:51:20.086Z,7.57
2019-04-16T17:56:57.113Z,5.20
2019-04-16T18:02:20.200Z,10.13
2019-04-16T18:05:08.021Z,6.50
2019-04-16T18:07:55.695Z,6.03
2019-04-16T18:15:58.492Z,8.40
2019-04-16T18:21:21.581Z,8.10
2019-04-16T18:24:09.355Z,8.63
2019-04-16T18:34:48.306Z,8.30
2019-04-16T18:37:36.002Z,8.23
2019-04-16T18:40:44.477Z,8.93
2019-04-16T18:43:52.946Z,8.23
2019-04-16T18:46:40.671Z,8.60
2019-04-16T18:51:45.067Z,12.20
2019-04-16T18:54:14.985Z,9.70
2019-04-16T18:56:44.289Z,8.97
2019-04-16T18:59:12.974Z,7.67
2019-04-16T19:02:00.911Z,9.20
2019-04-16T19:04:29.615Z,10.23
2019-04-16T19:06:58.626Z,9.70
2019-04-16T19:09:28.859Z,9.77
2019-04-16T19:11:57.683Z,7.70
2019-04-16T19:14:26.358Z,8.33
2019-04-16T19:16:55.046Z,10.13
2019-04-16T19:19:23.697Z,13.17
2019-04-16T19:21:53.114Z,10.97
2019-04-16T19:24:22.939Z,8.97
2019-04-16T19:26:51.627Z,12.63
2019-04-16T19:29:20.267Z,8.97
2019-04-16T19:31:48.874Z,9.87
2019-04-16T19:34:17.540Z,8.27
2019-04-16T19:36:55.875Z,11.30
2019-04-16T19:39:24.342Z,8.53
2019-04-16T19:41:57.150Z,9.20
2019-04-16T19:44:23.406Z,8.77
2019-04-16T19:46:53.721Z,9.17
2019-04-16T19:49:22.538Z,9.93
2019-04-16T19:51:51.201Z,7.90
2019-04-16T19:54:19.884Z,7.07
2019-04-16T19:56:51.377Z,8.83
2019-04-16T19:59:18.979Z,9.43
2019-04-16T20:01:47.700Z,10.07
2019-04-16T20:04:16.304Z,7.80
2019-04-16T20:06:44.979Z,8.27
2019-04-16T20:09:13.660Z,7.67
2019-04-16T20:11:42.317Z,7.87
2019-04-16T20:14:35.383Z,7.27
2019-04-16T20:17:00.658Z,8.07
2019-04-16T20:19:29.363Z,7.27
2019-04-16T20:21:58.060Z,8.13
2019-04-16T20:24:26.778Z,10.07
2019-04-16T20:26:55.741Z,9.20
2019-04-16T20:29:24.343Z,8.67
2019-04-16T20:31:53.346Z,8.27
2019-04-16T20:34:23.465Z,7.40
2019-04-16T20:36:54.738Z,6.97
2019-04-16T20:39:22.485Z,8.27
2019-04-16T20:41:53.100Z,8.53
2019-04-16T20:44:21.458Z,7.73
2019-04-16T20:47:09.376Z,8.70
2019-04-16T20:49:38.082Z,9.03
2019-04-16T20:52:06.781Z,8.53
2019-04-16T20:57:25.704Z,9.67
2019-04-16T20:59:55.062Z,9.80
2019-04-16T21:05:21.867Z,10.73
2019-04-16T21:07:43.869Z,8.87
2019-04-16T21:10:13.757Z,7.57
2019-04-16T21:12:45.028Z,8.87
2019-04-16T21:15:12.896Z,9.47
2019-04-16T21:17:41.475Z,10.03
2019-04-16T21:20:10.277Z,10.30
2019-04-16T21:22:38.922Z,7.13
2019-04-16T21:25:47.405Z,9.93
2019-04-16T21:28:35.225Z,8.07
2019-04-16T21:33:58.748Z,9.83
2019-04-16T21:36:46.450Z,7.43
2019-04-16T21:39:34.365Z,9.37
2019-04-16T21:42:03.444Z,10.47
2019-04-16T21:44:33.516Z,10.70
2019-04-16T21:47:02.205Z,6.33
2019-04-16T21:49:38.225Z,9.40
2019-04-16T21:52:23.236Z,10.10
2019-04-16T21:55:10.504Z,10.40
2019-04-16T21:57:42.867Z,9.23
2019-04-16T22:05:40.639Z,11.07
2019-04-16T22:08:09.337Z,11.83
2019-04-16T22:10:37.981Z,11.17
2019-04-16T22:13:26.539Z,11.90
2019-04-16T22:15:57.256Z,8.67
2019-04-16T22:18:26.386Z,8.63
2019-04-16T22:20:56.069Z,8.73
2019-04-16T22:23:26.616Z,10.77
2019-04-16T22:26:00.438Z,9.93
2019-04-16T22:28:45.510Z,9.30
2019-04-16T22:31:14.131Z,8.47
2019-04-16T22:33:43.093Z,8.60
2019-04-16T22:36:31.347Z,10.37
2019-04-16T22:39:19.373Z,11.90
2019-04-16T22:42:07.653Z,10.63
2019-04-16T22:44:55.597Z,11.47
2019-04-16T22:47:43.763Z,10.87
2019-04-16T22:50:17.030Z,12.50
2019-04-16T22:52:45.134Z,8.93
2019-04-16T22:55:14.296Z,10.00
2019-04-16T22:58:03.529Z,11.03
2019-04-16T23:00:52.024Z,12.40
2019-04-16T23:03:20.696Z,9.17
2019-04-16T23:05:49.627Z,10.90
2019-04-16T23:08:19.196Z,10.20
2019-04-16T23:10:50.601Z,8.07
2019-04-16T23:13:18.119Z,11.73
2019-04-16T23:15:46.872Z,8.57
2019-04-16T23:18:17.668Z,12.80
2019-04-16T23:20:46.534Z,11.70
2019-04-16T23:23:18.149Z,13.67
2019-04-16T23:25:46.237Z,10.13
2019-04-16T23:28:14.862Z,14.13
2019-04-16T23:30:44.658Z,13.63
2019-04-16T23:33:14.396Z,10.27
2019-04-16T23:35:44.603Z,11.10
2019-04-16T23:38:14.399Z,11.87
2019-04-16T23:40:44.748Z,9.30
2019-04-16T23:43:33.695Z,10.87
2019-04-16T23:46:21.974Z,11.40
2019-04-16T23:52:03.003Z,12.93
2019-04-16T23:57:35.675Z,13.57
